Orono, Maine
Current Conditions -  °F | °C
As of 1:53 PM on Sunday 23 Nov 2014 (Local Time) from KBGR Reporting Station
Broken Clouds Broken Clouds  
Wind Chill: 49°   Ceiling: 4400
Heat Index: 49°   Visibility: 10mi
Dew Point: 33°   Wind: 0mph
Humidity: 54%   Direction: NA
Pressure: 30.05"   Gusts: NA
Location:  44.88°N, 68.67°W
Report Text: KBGR 231853Z 00000KT 10SM BKN044 09/01 A3005 RMK AO2 SLP175 T00940006
Loading
Personal Weather Stations






























Interactive Weather Map New forecast layout! Learn more

10-Day Weather Forecast

Advertisements
Track Severe Weather on mobile